sensor_id;sensor_type;location;lat;lon;timestamp;pressure;altitude;pressure_sealevel;temperature;humidity
46886;BME280;32622;48.202;11.326;2023-05-09T00:01:28;1022.04;;;12.78;33.05
46886;BME280;32622;48.202;11.326;2023-05-09T00:03:31;1021.83;;;13.75;32.32
46886;BME280;32622;48.202;11.326;2023-05-09T00:05:35;1022.12;;;12.56;32.84
46886;BME280;32622;48.202;11.326;2023-05-09T00:07:38;1021.90;;;13.32;32.31
46886;BME280;32622;48.202;11.326;2023-05-09T00:09:41;1022.25;;;11.73;33.75
46886;BME280;32622;48.202;11.326;2023-05-09T00:11:45;1021.92;;;13.03;32.19
46886;BME280;32622;48.202;11.326;2023-05-09T00:13:48;1021.87;;;13.06;32.40
46886;BME280;32622;48.202;11.326;2023-05-09T00:15:53;1021.79;;;13.34;32.41
46886;BME280;32622;48.202;11.326;2023-05-09T00:17:56;1021.75;;;13.51;32.09
46886;BME280;32622;48.202;11.326;2023-05-09T00:19:59;1021.74;;;13.55;31.68
46886;BME280;32622;48.202;11.326;2023-05-09T00:22:03;1021.76;;;13.40;31.81
46886;BME280;32622;48.202;11.326;2023-05-09T00:24:06;1021.69;;;13.81;31.41
46886;BME280;32622;48.202;11.326;2023-05-09T00:26:10;1021.80;;;13.41;31.35
46886;BME280;32622;48.202;11.326;2023-05-09T00:28:13;1021.84;;;13.36;31.25
46886;BME280;32622;48.202;11.326;2023-05-09T00:30:16;1021.81;;;13.49;31.32
46886;BME280;32622;48.202;11.326;2023-05-09T00:32:19;1021.90;;;13.23;31.19
46886;BME280;32622;48.202;11.326;2023-05-09T00:34:22;1021.87;;;13.36;31.49
46886;BME280;32622;48.202;11.326;2023-05-09T00:36:25;1021.92;;;13.28;31.79
46886;BME280;32622;48.202;11.326;2023-05-09T00:38:28;1021.89;;;13.55;31.56
46886;BME280;32622;48.202;11.326;2023-05-09T00:40:32;1021.97;;;13.00;31.57
46886;BME280;32622;48.202;11.326;2023-05-09T00:42:35;1021.93;;;12.86;31.66
46886;BME280;32622;48.202;11.326;2023-05-09T00:44:38;1021.73;;;13.52;31.59
46886;BME280;32622;48.202;11.326;2023-05-09T00:46:42;1021.81;;;12.92;31.68
46886;BME280;32622;48.202;11.326;2023-05-09T00:48:46;1021.75;;;13.07;31.88
46886;BME280;32622;48.202;11.326;2023-05-09T00:50:49;1021.69;;;13.43;31.52
46886;BME280;32622;48.202;11.326;2023-05-09T00:52:52;1021.71;;;13.19;31.66
46886;BME280;32622;48.202;11.326;2023-05-09T00:54:55;1022.04;;;11.68;32.98
46886;BME280;32622;48.202;11.326;2023-05-09T00:56:59;1021.78;;;12.58;32.33
46886;BME280;32622;48.202;11.326;2023-05-09T00:59:02;1021.67;;;12.93;32.04
46886;BME280;32622;48.202;11.326;2023-05-09T01:01:06;1021.75;;;12.68;32.06
46886;BME280;32622;48.202;11.326;2023-05-09T01:03:09;1021.73;;;12.76;32.35
46886;BME280;32622;48.202;11.326;2023-05-09T01:05:12;1021.70;;;12.60;32.25
46886;BME280;32622;48.202;11.326;2023-05-09T01:07:24;1021.54;;;13.05;31.42
46886;BME280;32622;48.202;11.326;2023-05-09T01:09:37;1021.77;;;11.69;32.93
46886;BME280;32622;48.202;11.326;2023-05-09T01:11:48;1022.01;;;10.66;34.56
46886;BME280;32622;48.202;11.326;2023-05-09T01:14:02;1022.43;;;8.92;37.74
46886;BME280;32622;48.202;11.326;2023-05-09T01:16:11;1021.84;;;11.08;35.16
46886;BME280;32622;48.202;11.326;2023-05-09T01:18:18;1021.89;;;10.87;35.00
46886;BME280;32622;48.202;11.326;2023-05-09T01:20:27;1021.72;;;11.67;34.66
46886;BME280;32622;48.202;11.326;2023-05-09T01:22:33;1021.62;;;12.08;33.81
46886;BME280;32622;48.202;11.326;2023-05-09T01:27:37;1021.50;;;12.42;33.38
46886;BME280;32622;48.202;11.326;2023-05-09T01:29:43;1021.59;;;11.99;33.61
46886;BME280;32622;48.202;11.326;2023-05-09T01:31:47;1021.47;;;12.40;33.29
46886;BME280;32622;48.202;11.326;2023-05-09T01:33:57;1021.60;;;11.74;33.17
46886;BME280;32622;48.202;11.326;2023-05-09T01:36:06;1021.80;;;10.91;33.91
46886;BME280;32622;48.202;11.326;2023-05-09T01:38:13;1021.84;;;10.65;34.94
46886;BME280;32622;48.202;11.326;2023-05-09T01:40:19;1021.73;;;11.16;34.89
46886;BME280;32622;48.202;11.326;2023-05-09T01:42:24;1021.69;;;11.22;34.24
46886;BME280;32622;48.202;11.326;2023-05-09T01:44:33;1021.71;;;11.26;33.70
46886;BME280;32622;48.202;11.326;2023-05-09T01:46:37;1021.65;;;11.46;34.08
46886;BME280;32622;48.202;11.326;2023-05-09T01:48:41;1021.50;;;11.87;33.38
46886;BME280;32622;48.202;11.326;2023-05-09T01:50:47;1021.48;;;11.72;32.97
46886;BME280;32622;48.202;11.326;2023-05-09T01:52:54;1021.46;;;11.87;32.78
46886;BME280;32622;48.202;11.326;2023-05-09T01:54:58;1021.58;;;11.43;33.36
46886;BME280;32622;48.202;11.326;2023-05-09T01:57:03;1021.57;;;11.47;33.53
46886;BME280;32622;48.202;11.326;2023-05-09T01:59:08;1021.59;;;11.36;33.64
46886;BME280;32622;48.202;11.326;2023-05-09T02:01:13;1021.57;;;11.29;33.20
46886;BME280;32622;48.202;11.326;2023-05-09T02:03:17;1021.33;;;12.24;32.82
46886;BME280;32622;48.202;11.326;2023-05-09T02:05:26;1021.54;;;11.30;33.35
46886;BME280;32622;48.202;11.326;2023-05-09T02:07:30;1021.56;;;11.28;34.26
46886;BME280;32622;48.202;11.326;2023-05-09T02:09:34;1021.54;;;11.21;34.14
46886;BME280;32622;48.202;11.326;2023-05-09T02:11:37;1021.53;;;11.15;34.25
46886;BME280;32622;48.202;11.326;2023-05-09T02:13:41;1021.50;;;11.27;33.99
46886;BME280;32622;48.202;11.326;2023-05-09T02:15:45;1021.46;;;11.39;33.92
46886;BME280;32622;48.202;11.326;2023-05-09T02:17:48;1021.70;;;10.44;34.57
46886;BME280;32622;48.202;11.326;2023-05-09T02:19:52;1021.88;;;9.63;36.45
46886;BME280;32622;48.202;11.326;2023-05-09T02:21:55;1021.72;;;10.07;35.85
46886;BME280;32622;48.202;11.326;2023-05-09T02:23:59;1021.98;;;9.11;36.62
46886;BME280;32622;48.202;11.326;2023-05-09T02:26:02;1022.12;;;8.71;38.28
46886;BME280;32622;48.202;11.326;2023-05-09T02:28:06;1021.96;;;9.37;37.52
46886;BME280;32622;48.202;11.326;2023-05-09T02:30:16;1021.92;;;9.33;37.22
46886;BME280;32622;48.202;11.326;2023-05-09T02:32:24;1021.70;;;10.10;36.70
46886;BME280;32622;48.202;11.326;2023-05-09T02:34:29;1021.78;;;9.81;36.35
46886;BME280;32622;48.202;11.326;2023-05-09T02:36:32;1021.94;;;9.18;37.03
46886;BME280;32622;48.202;11.326;2023-05-09T02:38:35;1022.18;;;8.17;38.86
46886;BME280;32622;48.202;11.326;2023-05-09T02:40:40;1022.15;;;8.27;38.98
46886;BME280;32622;48.202;11.326;2023-05-09T02:42:44;1021.72;;;9.95;36.98
46886;BME280;32622;48.202;11.326;2023-05-09T02:44:47;1022.02;;;8.83;37.43
46886;BME280;32622;48.202;11.326;2023-05-09T02:46:51;1021.78;;;9.56;37.06
46886;BME280;32622;48.202;11.326;2023-05-09T02:48:55;1021.96;;;8.90;37.41
46886;BME280;32622;48.202;11.326;2023-05-09T02:50:58;1022.06;;;8.36;38.32
46886;BME280;32622;48.202;11.326;2023-05-09T02:53:01;1021.83;;;9.26;37.09
46886;BME280;32622;48.202;11.326;2023-05-09T02:55:05;1021.73;;;9.61;36.68
46886;BME280;32622;48.202;11.326;2023-05-09T02:57:09;1021.67;;;9.86;36.23
46886;BME280;32622;48.202;11.326;2023-05-09T02:59:12;1021.60;;;9.88;35.73
46886;BME280;32622;48.202;11.326;2023-05-09T03:01:15;1021.51;;;10.32;35.09
46886;BME280;32622;48.202;11.326;2023-05-09T03:03:18;1021.44;;;10.49;34.81
46886;BME280;32622;48.202;11.326;2023-05-09T03:05:22;1021.55;;;9.92;35.37
46886;BME280;32622;48.202;11.326;2023-05-09T03:07:25;1021.50;;;10.32;35.48
46886;BME280;32622;48.202;11.326;2023-05-09T03:09:28;1021.61;;;9.91;35.44
46886;BME280;32622;48.202;11.326;2023-05-09T03:11:32;1021.83;;;9.23;36.61
46886;BME280;32622;48.202;11.326;2023-05-09T03:13:35;1021.90;;;8.99;37.47
46886;BME280;32622;48.202;11.326;2023-05-09T03:15:38;1021.65;;;9.67;36.22
46886;BME280;32622;48.202;11.326;2023-05-09T03:17:41;1021.66;;;9.59;36.43
46886;BME280;32622;48.202;11.326;2023-05-09T03:19:45;1021.65;;;9.59;35.93
46886;BME280;32622;48.202;11.326;2023-05-09T03:21:48;1021.58;;;9.90;35.95
46886;BME280;32622;48.202;11.326;2023-05-09T03:23:51;1021.57;;;9.95;35.74
46886;BME280;32622;48.202;11.326;2023-05-09T03:25:54;1021.41;;;10.66;35.15
46886;BME280;32622;48.202;11.326;2023-05-09T03:27:58;1021.43;;;10.61;34.61
46886;BME280;32622;48.202;11.326;2023-05-09T03:30:01;1021.46;;;10.47;34.48
46886;BME280;32622;48.202;11.326;2023-05-09T03:32:05;1021.50;;;10.18;35.12
46886;BME280;32622;48.202;11.326;2023-05-09T03:34:08;1021.61;;;9.59;35.40
46886;BME280;32622;48.202;11.326;2023-05-09T03:36:11;1021.54;;;9.90;35.42
46886;BME280;32622;48.202;11.326;2023-05-09T03:38:14;1021.61;;;9.66;35.87
46886;BME280;32622;48.202;11.326;2023-05-09T03:40:17;1021.89;;;8.56;36.94
46886;BME280;32622;48.202;11.326;2023-05-09T03:42:20;1021.72;;;9.19;35.83
46886;BME280;32622;48.202;11.326;2023-05-09T03:44:24;1021.69;;;9.36;36.35
46886;BME280;32622;48.202;11.326;2023-05-09T03:46:27;1021.62;;;9.59;36.15
46886;BME280;32622;48.202;11.326;2023-05-09T03:48:30;1021.80;;;8.82;36.49
46886;BME280;32622;48.202;11.326;2023-05-09T03:50:33;1021.73;;;9.20;37.05
46886;BME280;32622;48.202;11.326;2023-05-09T03:52:37;1021.55;;;9.85;35.89
46886;BME280;32622;48.202;11.326;2023-05-09T03:54:40;1021.62;;;9.53;36.15
46886;BME280;32622;48.202;11.326;2023-05-09T03:56:44;1021.65;;;9.59;36.07
46886;BME280;32622;48.202;11.326;2023-05-09T03:58:47;1021.49;;;10.36;35.11
46886;BME280;32622;48.202;11.326;2023-05-09T04:00:50;1021.52;;;10.30;35.12
46886;BME280;32622;48.202;11.326;2023-05-09T04:02:53;1021.61;;;9.95;35.47
46886;BME280;32622;48.202;11.326;2023-05-09T04:04:56;1021.63;;;9.86;35.35
46886;BME280;32622;48.202;11.326;2023-05-09T04:06:59;1021.67;;;9.71;35.47
46886;BME280;32622;48.202;11.326;2023-05-09T04:09:04;1021.51;;;10.14;34.81
46886;BME280;32622;48.202;11.326;2023-05-09T04:11:08;1021.55;;;9.99;34.46
46886;BME280;32622;48.202;11.326;2023-05-09T04:13:11;1021.67;;;9.74;35.16
46886;BME280;32622;48.202;11.326;2023-05-09T04:15:14;1021.59;;;10.15;34.78
46886;BME280;32622;48.202;11.326;2023-05-09T04:17:17;1021.62;;;10.01;34.60
46886;BME280;32622;48.202;11.326;2023-05-09T04:19:21;1021.64;;;9.85;35.16
46886;BME280;32622;48.202;11.326;2023-05-09T04:21:25;1021.70;;;9.36;35.37
46886;BME280;32622;48.202;11.326;2023-05-09T04:23:28;1021.45;;;10.30;34.64
46886;BME280;32622;48.202;11.326;2023-05-09T04:25:31;1021.63;;;9.63;35.45
46886;BME280;32622;48.202;11.326;2023-05-09T04:27:34;1021.59;;;9.89;34.80
46886;BME280;32622;48.202;11.326;2023-05-09T04:29:37;1021.58;;;9.78;34.79
46886;BME280;32622;48.202;11.326;2023-05-09T04:31:41;1021.52;;;10.14;34.76
46886;BME280;32622;48.202;11.326;2023-05-09T04:33:44;1021.85;;;8.84;36.26
46886;BME280;32622;48.202;11.326;2023-05-09T04:35:47;1021.61;;;9.55;36.06
46886;BME280;32622;48.202;11.326;2023-05-09T04:37:51;1021.40;;;10.17;35.09
46886;BME280;32622;48.202;11.326;2023-05-09T04:39:54;1021.49;;;9.77;35.14
46886;BME280;32622;48.202;11.326;2023-05-09T04:41:56;1021.40;;;10.10;35.10
46886;BME280;32622;48.202;11.326;2023-05-09T04:44:03;1021.67;;;9.03;36.82
46886;BME280;32622;48.202;11.326;2023-05-09T04:46:07;1021.43;;;9.79;36.17
46886;BME280;32622;48.202;11.326;2023-05-09T04:48:10;1021.63;;;9.00;37.48
46886;BME280;32622;48.202;11.326;2023-05-09T04:50:13;1021.56;;;9.26;37.59
46886;BME280;32622;48.202;11.326;2023-05-09T04:52:16;1022.12;;;6.97;40.24
46886;BME280;32622;48.202;11.326;2023-05-09T04:54:19;1021.88;;;7.95;39.75
46886;BME280;32622;48.202;11.326;2023-05-09T04:56:22;1021.61;;;9.39;37.69
46886;BME280;32622;48.202;11.326;2023-05-09T04:58:26;1021.57;;;9.41;37.06
46886;BME280;32622;48.202;11.326;2023-05-09T05:00:29;1021.56;;;9.28;36.75
46886;BME280;32622;48.202;11.326;2023-05-09T05:02:32;1021.36;;;9.96;36.64
46886;BME280;32622;48.202;11.326;2023-05-09T05:04:35;1021.55;;;9.35;35.90
46886;BME280;32622;48.202;11.326;2023-05-09T05:06:39;1021.93;;;8.00;39.12
46886;BME280;32622;48.202;11.326;2023-05-09T05:08:42;1021.52;;;9.54;36.50
46886;BME280;32622;48.202;11.326;2023-05-09T05:10:45;1021.57;;;9.33;37.12
46886;BME280;32622;48.202;11.326;2023-05-09T05:12:49;1021.84;;;8.34;38.79
46886;BME280;32622;48.202;11.326;2023-05-09T05:14:52;1021.59;;;9.30;37.78
46886;BME280;32622;48.202;11.326;2023-05-09T05:16:55;1021.33;;;10.13;36.97
46886;BME280;32622;48.202;11.326;2023-05-09T05:18:58;1021.29;;;9.99;36.02
46886;BME280;32622;48.202;11.326;2023-05-09T05:21:01;1021.27;;;10.05;36.19
46886;BME280;32622;48.202;11.326;2023-05-09T05:23:05;1021.44;;;9.25;36.39
46886;BME280;32622;48.202;11.326;2023-05-09T05:25:09;1021.19;;;10.23;36.15
46886;BME280;32622;48.202;11.326;2023-05-09T05:27:12;1021.70;;;8.20;38.09
46886;BME280;32622;48.202;11.326;2023-05-09T05:29:15;1021.95;;;7.07;39.63
46886;BME280;32622;48.202;11.326;2023-05-09T05:31:18;1021.79;;;7.62;39.94
46886;BME280;32622;48.202;11.326;2023-05-09T05:33:21;1021.49;;;9.16;39.21
46886;BME280;32622;48.202;11.326;2023-05-09T05:35:25;1021.87;;;7.62;39.47
46886;BME280;32622;48.202;11.326;2023-05-09T05:37:28;1021.41;;;9.17;37.42
46886;BME280;32622;48.202;11.326;2023-05-09T05:39:31;1021.34;;;9.68;36.22
46886;BME280;32622;48.202;11.326;2023-05-09T05:41:34;1021.70;;;8.20;37.44
46886;BME280;32622;48.202;11.326;2023-05-09T05:43:37;1021.35;;;9.33;36.65
46886;BME280;32622;48.202;11.326;2023-05-09T05:45:41;1021.12;;;10.12;35.94
46886;BME280;32622;48.202;11.326;2023-05-09T05:47:44;1021.48;;;8.76;37.78
46886;BME280;32622;48.202;11.326;2023-05-09T05:49:48;1021.26;;;9.49;37.88
46886;BME280;32622;48.202;11.326;2023-05-09T05:51:51;1021.50;;;8.74;37.40
46886;BME280;32622;48.202;11.326;2023-05-09T05:53:54;1021.14;;;9.95;36.06
46886;BME280;32622;48.202;11.326;2023-05-09T05:55:57;1020.98;;;10.60;35.36
46886;BME280;32622;48.202;11.326;2023-05-09T05:58:00;1021.16;;;9.68;36.16
46886;BME280;32622;48.202;11.326;2023-05-09T06:00:04;1021.48;;;8.54;37.81
46886;BME280;32622;48.202;11.326;2023-05-09T06:02:08;1021.18;;;9.58;37.75
46886;BME280;32622;48.202;11.326;2023-05-09T06:04:11;1021.09;;;9.86;37.17
46886;BME280;32622;48.202;11.326;2023-05-09T06:06:14;1021.28;;;9.09;37.50
46886;BME280;32622;48.202;11.326;2023-05-09T06:08:17;1021.12;;;9.71;36.91
46886;BME280;32622;48.202;11.326;2023-05-09T06:10:21;1021.05;;;10.03;35.85
46886;BME280;32622;48.202;11.326;2023-05-09T06:12:24;1020.78;;;11.38;34.86
46886;BME280;32622;48.202;11.326;2023-05-09T06:14:27;1020.89;;;10.89;34.25
46886;BME280;32622;48.202;11.326;2023-05-09T06:16:32;1021.22;;;9.22;35.63
46886;BME280;32622;48.202;11.326;2023-05-09T06:18:36;1020.81;;;11.06;34.60
46886;BME280;32622;48.202;11.326;2023-05-09T06:20:39;1020.58;;;11.96;33.03
46886;BME280;32622;48.202;11.326;2023-05-09T06:22:47;1021.12;;;9.68;34.77
46886;BME280;32622;48.202;11.326;2023-05-09T06:24:50;1021.06;;;10.13;35.95
46886;BME280;32622;48.202;11.326;2023-05-09T06:26:58;1021.15;;;9.74;36.03
46886;BME280;32622;48.202;11.326;2023-05-09T06:29:03;1020.84;;;11.08;34.50
46886;BME280;32622;48.202;11.326;2023-05-09T06:31:07;1020.64;;;11.64;33.03
46886;BME280;32622;48.202;11.326;2023-05-09T06:33:11;1020.45;;;12.22;33.02
46886;BME280;32622;48.202;11.326;2023-05-09T06:35:14;1020.54;;;11.57;32.61
46886;BME280;32622;48.202;11.326;2023-05-09T06:37:17;1020.31;;;12.37;32.35
46886;BME280;32622;48.202;11.326;2023-05-09T06:39:24;1020.42;;;11.76;33.25
46886;BME280;32622;48.202;11.326;2023-05-09T06:41:27;1020.37;;;11.80;32.42
46886;BME280;32622;48.202;11.326;2023-05-09T06:43:30;1020.32;;;11.90;32.73
46886;BME280;32622;48.202;11.326;2023-05-09T06:45:33;1020.23;;;12.40;32.49
46886;BME280;32622;48.202;11.326;2023-05-09T06:47:37;1020.26;;;12.16;32.88
46886;BME280;32622;48.202;11.326;2023-05-09T06:49:40;1020.12;;;12.77;31.44
46886;BME280;32622;48.202;11.326;2023-05-09T06:51:44;1020.32;;;11.73;32.78
46886;BME280;32622;48.202;11.326;2023-05-09T06:53:47;1020.43;;;11.31;33.12
46886;BME280;32622;48.202;11.326;2023-05-09T06:55:51;1020.38;;;11.36;32.97
46886;BME280;32622;48.202;11.326;2023-05-09T06:57:55;1020.41;;;11.28;33.49
46886;BME280;32622;48.202;11.326;2023-05-09T06:59:58;1020.24;;;11.76;33.81
46886;BME280;32622;48.202;11.326;2023-05-09T07:02:02;1020.10;;;12.40;32.56
46886;BME280;32622;48.202;11.326;2023-05-09T07:04:05;1020.04;;;12.68;32.97
46886;BME280;32622;48.202;11.326;2023-05-09T07:06:09;1019.86;;;13.31;32.52
46886;BME280;32622;48.202;11.326;2023-05-09T07:08:12;1020.47;;;10.66;34.51
46886;BME280;32622;48.202;11.326;2023-05-09T07:10:15;1020.15;;;11.82;33.46
46886;BME280;32622;48.202;11.326;2023-05-09T07:12:18;1019.82;;;13.52;32.70
46886;BME280;32622;48.202;11.326;2023-05-09T07:14:21;1019.83;;;13.18;31.29
46886;BME280;32622;48.202;11.326;2023-05-09T07:16:25;1019.72;;;13.58;31.73
46886;BME280;32622;48.202;11.326;2023-05-09T07:18:28;1019.46;;;14.59;30.67
46886;BME280;32622;48.202;11.326;2023-05-09T07:20:31;1019.49;;;14.40;29.07
46886;BME280;32622;48.202;11.326;2023-05-09T07:22:34;1019.43;;;14.47;29.58
46886;BME280;32622;48.202;11.326;2023-05-09T07:24:37;1019.41;;;14.42;30.56
46886;BME280;32622;48.202;11.326;2023-05-09T07:26:41;1018.94;;;16.48;27.78
46886;BME280;32622;48.202;11.326;2023-05-09T07:28:44;1019.58;;;13.53;30.83
46886;BME280;32622;48.202;11.326;2023-05-09T07:30:47;1019.31;;;14.69;29.72
46886;BME280;32622;48.202;11.326;2023-05-09T07:32:51;1019.28;;;14.90;29.04
46886;BME280;32622;48.202;11.326;2023-05-09T07:34:54;1019.22;;;15.10;28.71
46886;BME280;32622;48.202;11.326;2023-05-09T07:36:57;1018.97;;;15.91;28.62
46886;BME280;32622;48.202;11.326;2023-05-09T07:39:00;1018.82;;;16.47;27.56
46886;BME280;32622;48.202;11.326;2023-05-09T07:41:03;1018.75;;;16.58;27.62
46886;BME280;32622;48.202;11.326;2023-05-09T07:43:06;1018.67;;;16.88;27.56
46886;BME280;32622;48.202;11.326;2023-05-09T07:45:10;1019.17;;;14.73;28.88
46886;BME280;32622;48.202;11.326;2023-05-09T07:47:13;1018.87;;;15.67;27.90
46886;BME280;32622;48.202;11.326;2023-05-09T07:49:16;1018.90;;;15.44;28.62
46886;BME280;32622;48.202;11.326;2023-05-09T07:51:19;1018.76;;;16.10;29.14
46886;BME280;32622;48.202;11.326;2023-05-09T07:53:23;1018.98;;;15.40;29.46
46886;BME280;32622;48.202;11.326;2023-05-09T07:55:26;1018.64;;;16.76;27.59
46886;BME280;32622;48.202;11.326;2023-05-09T07:57:29;1018.39;;;17.77;27.78
46886;BME280;32622;48.202;11.326;2023-05-09T07:59:32;1018.48;;;17.39;26.59
46886;BME280;32622;48.202;11.326;2023-05-09T08:01:35;1018.67;;;16.40;28.06
46886;BME280;32622;48.202;11.326;2023-05-09T08:03:38;1018.25;;;18.15;27.22
46886;BME280;32622;48.202;11.326;2023-05-09T08:05:41;1018.34;;;17.72;26.31
46886;BME280;32622;48.202;11.326;2023-05-09T08:07:45;1018.66;;;16.03;27.46
46886;BME280;32622;48.202;11.326;2023-05-09T08:09:48;1018.45;;;16.75;27.48
46886;BME280;32622;48.202;11.326;2023-05-09T08:11:51;1018.04;;;18.44;25.91
46886;BME280;32622;48.202;11.326;2023-05-09T08:13:54;1018.02;;;18.42;26.47
46886;BME280;32622;48.202;11.326;2023-05-09T08:15:58;1017.94;;;18.71;25.54
46886;BME280;32622;48.202;11.326;2023-05-09T08:18:02;1018.45;;;16.77;26.78
46886;BME280;32622;48.202;11.326;2023-05-09T08:20:06;1018.18;;;17.83;26.13
46886;BME280;32622;48.202;11.326;2023-05-09T08:22:15;1017.83;;;19.14;25.45
46886;BME280;32622;48.202;11.326;2023-05-09T08:24:19;1017.83;;;18.94;25.13
46886;BME280;32622;48.202;11.326;2023-05-09T08:26:22;1018.16;;;17.40;26.44
46886;BME280;32622;48.202;11.326;2023-05-09T08:28:25;1018.09;;;17.57;27.08
46886;BME280;32622;48.202;11.326;2023-05-09T08:30:28;1018.02;;;17.69;27.38
46886;BME280;32622;48.202;11.326;2023-05-09T08:32:31;1017.66;;;19.10;26.28
46886;BME280;32622;48.202;11.326;2023-05-09T08:34:35;1017.95;;;17.76;25.97
46886;BME280;32622;48.202;11.326;2023-05-09T08:36:38;1017.59;;;19.03;26.05
46886;BME280;32622;48.202;11.326;2023-05-09T08:38:41;1017.76;;;18.29;25.69
46886;BME280;32622;48.202;11.326;2023-05-09T08:40:45;1018.22;;;16.45;27.50
46886;BME280;32622;48.202;11.326;2023-05-09T08:42:49;1017.71;;;18.24;27.23
46886;BME280;32622;48.202;11.326;2023-05-09T08:44:52;1017.46;;;19.21;25.47
46886;BME280;32622;48.202;11.326;2023-05-09T08:46:58;1017.28;;;19.92;25.81
46886;BME280;32622;48.202;11.326;2023-05-09T08:49:04;1017.48;;;18.98;25.18
46886;BME280;32622;48.202;11.326;2023-05-09T08:51:08;1017.13;;;20.17;25.07
46886;BME280;32622;48.202;11.326;2023-05-09T08:53:13;1017.18;;;19.63;24.73
46886;BME280;32622;48.202;11.326;2023-05-09T08:55:16;1017.21;;;19.75;25.32
46886;BME280;32622;48.202;11.326;2023-05-09T08:57:20;1017.27;;;19.33;24.84
46886;BME280;32622;48.202;11.326;2023-05-09T08:59:23;1017.23;;;19.48;25.11
46886;BME280;32622;48.202;11.326;2023-05-09T09:01:27;1017.13;;;19.91;24.36
46886;BME280;32622;48.202;11.326;2023-05-09T09:03:30;1017.08;;;20.15;24.59
46886;BME280;32622;48.202;11.326;2023-05-09T09:05:36;1016.99;;;20.35;23.50
46886;BME280;32622;48.202;11.326;2023-05-09T09:07:41;1016.89;;;20.94;23.14
46886;BME280;32622;48.202;11.326;2023-05-09T09:09:46;1016.71;;;21.59;23.44
46886;BME280;32622;48.202;11.326;2023-05-09T09:11:50;1016.62;;;21.83;23.81
46886;BME280;32622;48.202;11.326;2023-05-09T09:13:54;1016.42;;;22.55;23.27
46886;BME280;32622;48.202;11.326;2023-05-09T09:15:58;1016.53;;;22.06;21.92
46886;BME280;32622;48.202;11.326;2023-05-09T09:18:05;1016.62;;;21.64;22.32
46886;BME280;32622;48.202;11.326;2023-05-09T09:20:11;1016.54;;;21.75;22.39
46886;BME280;32622;48.202;11.326;2023-05-09T09:22:18;1016.66;;;21.26;23.31
46886;BME280;32622;48.202;11.326;2023-05-09T09:24:23;1016.71;;;20.65;23.49
46886;BME280;32622;48.202;11.326;2023-05-09T09:26:27;1016.70;;;20.03;25.08
46886;BME280;32622;48.202;11.326;2023-05-09T09:28:30;1016.54;;;20.81;23.90
46886;BME280;32622;48.202;11.326;2023-05-09T09:30:33;1016.46;;;21.09;23.56
46886;BME280;32622;48.202;11.326;2023-05-09T09:32:37;1016.48;;;20.77;23.46
46886;BME280;32622;48.202;11.326;2023-05-09T09:34:40;1016.36;;;21.17;23.41
46886;BME280;32622;48.202;11.326;2023-05-09T09:36:50;1016.09;;;22.03;24.26
46886;BME280;32622;48.202;11.326;2023-05-09T09:38:57;1016.21;;;21.54;22.83
46886;BME280;32622;48.202;11.326;2023-05-09T09:41:06;1016.07;;;22.03;22.94
46886;BME280;32622;48.202;11.326;2023-05-09T09:43:09;1015.82;;;22.78;23.24
46886;BME280;32622;48.202;11.326;2023-05-09T09:45:14;1015.95;;;22.12;22.19
46886;BME280;32622;48.202;11.326;2023-05-09T09:47:17;1015.92;;;22.24;21.64
46886;BME280;32622;48.202;11.326;2023-05-09T09:49:21;1016.41;;;19.96;23.65
46886;BME280;32622;48.202;11.326;2023-05-09T09:51:26;1016.15;;;21.14;23.73
46886;BME280;32622;48.202;11.326;2023-05-09T09:53:30;1015.95;;;21.87;23.68
46886;BME280;32622;48.202;11.326;2023-05-09T09:55:48;1015.77;;;22.23;24.00
46886;BME280;32622;48.202;11.326;2023-05-09T09:57:52;1015.54;;;23.14;23.86
46886;BME280;32622;48.202;11.326;2023-05-09T09:59:58;1015.75;;;22.18;22.63
46886;BME280;32622;48.202;11.326;2023-05-09T10:02:02;1015.88;;;21.58;23.84
46886;BME280;32622;48.202;11.326;2023-05-09T10:04:05;1015.77;;;21.68;23.42
46886;BME280;32622;48.202;11.326;2023-05-09T10:06:09;1015.95;;;20.76;23.64
46886;BME280;32622;48.202;11.326;2023-05-09T10:08:13;1016.38;;;18.36;26.68
46886;BME280;32622;48.202;11.326;2023-05-09T10:10:16;1016.22;;;19.13;25.41
46886;BME280;32622;48.202;11.326;2023-05-09T10:12:19;1015.97;;;19.91;26.04
46886;BME280;32622;48.202;11.326;2023-05-09T10:14:24;1016.12;;;19.22;25.68
46886;BME280;32622;48.202;11.326;2023-05-09T10:16:28;1016.06;;;19.36;25.36
46886;BME280;32622;48.202;11.326;2023-05-09T10:18:32;1015.68;;;21.00;25.04
46886;BME280;32622;48.202;11.326;2023-05-09T10:20:37;1016.34;;;17.74;25.88
46886;BME280;32622;48.202;11.326;2023-05-09T10:22:41;1016.28;;;18.15;26.88
46886;BME280;32622;48.202;11.326;2023-05-09T10:24:48;1015.95;;;19.24;26.04
46886;BME280;32622;48.202;11.326;2023-05-09T10:26:58;1015.65;;;20.62;24.68
46886;BME280;32622;48.202;11.326;2023-05-09T10:29:07;1015.64;;;20.39;24.94
46886;BME280;32622;48.202;11.326;2023-05-09T10:31:17;1015.91;;;19.25;26.06
46886;BME280;32622;48.202;11.326;2023-05-09T10:33:30;1015.76;;;19.37;25.93
46886;BME280;32622;48.202;11.326;2023-05-09T10:35:36;1015.43;;;20.78;26.26
46886;BME280;32622;48.202;11.326;2023-05-09T10:37:42;1015.34;;;21.04;24.05
46886;BME280;32622;48.202;11.326;2023-05-09T10:39:46;1015.72;;;19.18;26.14
46886;BME280;32622;48.202;11.326;2023-05-09T10:41:49;1015.53;;;19.63;26.51
46886;BME280;32622;48.202;11.326;2023-05-09T10:43:55;1015.84;;;18.44;27.61
46886;BME280;32622;48.202;11.326;2023-05-09T10:46:00;1015.50;;;19.70;25.99
46886;BME280;32622;48.202;11.326;2023-05-09T10:48:05;1015.46;;;19.88;24.92
46886;BME280;32622;48.202;11.326;2023-05-09T10:50:11;1015.88;;;17.98;27.03
46886;BME280;32622;48.202;11.326;2023-05-09T10:52:15;1015.77;;;18.41;27.34
46886;BME280;32622;48.202;11.326;2023-05-09T10:54:29;1015.54;;;19.10;26.71
46886;BME280;32622;48.202;11.326;2023-05-09T10:56:33;1015.38;;;19.32;26.38
46886;BME280;32622;48.202;11.326;2023-05-09T10:58:36;1015.79;;;17.33;29.22
46886;BME280;32622;48.202;11.326;2023-05-09T11:00:40;1015.55;;;18.16;29.57
46886;BME280;32622;48.202;11.326;2023-05-09T11:03:05;1015.75;;;17.08;28.61